createdAt,value
2018-03-03T00:00:46.258Z,-6.79
2018-03-03T00:03:14.673Z,-6.68
2018-03-03T00:05:43.126Z,-6.73
2018-03-03T00:08:11.564Z,-6.71
2018-03-03T00:10:40.000Z,-6.65
2018-03-03T00:13:08.488Z,-6.71
2018-03-03T00:15:36.940Z,-6.71
2018-03-03T00:18:05.377Z,-6.77
2018-03-03T00:20:33.851Z,-6.80
2018-03-03T00:23:02.263Z,-6.76
2018-03-03T00:25:30.694Z,-6.78
2018-03-03T00:27:59.172Z,-6.80
2018-03-03T00:30:27.599Z,-6.78
2018-03-03T00:32:56.017Z,-6.77
2018-03-03T00:35:24.486Z,-6.72
2018-03-03T00:37:52.917Z,-6.71
2018-03-03T00:40:21.340Z,-6.78
2018-03-03T00:42:49.795Z,-6.78
2018-03-03T00:45:18.215Z,-6.78
2018-03-03T00:47:46.629Z,-6.82
2018-03-03T00:50:15.109Z,-6.75
2018-03-03T00:52:43.545Z,-6.78
2018-03-03T00:55:11.960Z,-6.75
2018-03-03T00:57:40.441Z,-6.88
2018-03-03T01:00:08.855Z,-6.84
2018-03-03T01:02:37.281Z,-6.91
2018-03-03T01:05:05.762Z,-6.87
2018-03-03T01:07:34.214Z,-6.92
2018-03-03T01:10:02.630Z,-6.93
2018-03-03T01:12:31.101Z,-7.01
2018-03-03T01:14:59.527Z,-7.12
2018-03-03T01:17:27.959Z,-7.09
2018-03-03T01:19:56.431Z,-7.21
2018-03-03T01:22:24.870Z,-7.27
2018-03-03T01:24:53.294Z,-7.33
2018-03-03T01:27:21.755Z,-7.41
2018-03-03T01:29:50.184Z,-7.44
2018-03-03T01:32:18.611Z,-7.44
2018-03-03T01:34:47.094Z,-7.42
2018-03-03T01:37:15.528Z,-7.49
2018-03-03T01:39:43.956Z,-7.52
2018-03-03T01:42:12.425Z,-7.54
2018-03-03T01:44:40.855Z,-7.63
2018-03-03T01:47:09.299Z,-7.60
2018-03-03T01:49:37.775Z,-7.66
2018-03-03T01:52:06.194Z,-7.66
2018-03-03T01:54:34.628Z,-7.68
2018-03-03T01:57:03.094Z,-7.64
2018-03-03T01:59:31.510Z,-7.57
2018-03-03T02:01:59.936Z,-7.53
2018-03-03T02:04:28.394Z,-7.57
2018-03-03T02:06:56.805Z,-7.61
2018-03-03T02:09:25.222Z,-7.59
2018-03-03T02:11:53.670Z,-7.49
2018-03-03T02:14:22.101Z,-7.54
2018-03-03T02:16:50.537Z,-7.48
2018-03-03T02:19:19.016Z,-7.48
2018-03-03T02:21:47.442Z,-7.53
2018-03-03T02:24:15.878Z,-7.58
2018-03-03T02:26:44.364Z,-7.69
2018-03-03T02:29:12.802Z,-7.81
2018-03-03T02:31:41.234Z,-7.88
2018-03-03T02:34:09.694Z,-7.89
2018-03-03T02:36:38.140Z,-7.96
2018-03-03T02:39:06.585Z,-7.98
2018-03-03T02:41:35.061Z,-7.96
2018-03-03T02:44:03.518Z,-7.99
2018-03-03T02:46:31.939Z,-8.04
2018-03-03T02:49:00.390Z,-8.02
2018-03-03T02:51:28.855Z,-8.09
2018-03-03T02:53:57.279Z,-8.10
2018-03-03T02:56:25.930Z,-8.09
2018-03-03T02:58:54.366Z,-8.14
2018-03-03T03:01:22.779Z,-8.13
2018-03-03T03:03:51.245Z,-8.16
2018-03-03T03:06:19.680Z,-8.20
2018-03-03T03:08:48.112Z,-8.23
2018-03-03T03:11:16.567Z,-8.27
2018-03-03T03:13:45.002Z,-8.25
2018-03-03T03:16:13.418Z,-8.21
2018-03-03T03:18:41.870Z,-8.23
2018-03-03T03:21:10.290Z,-8.20
2018-03-03T03:23:38.737Z,-8.24
2018-03-03T03:26:07.207Z,-8.27
2018-03-03T03:28:35.626Z,-8.30
2018-03-03T03:31:04.068Z,-8.36
2018-03-03T03:33:32.542Z,-8.32
2018-03-03T03:36:00.969Z,-8.41
2018-03-03T03:38:29.400Z,-8.39
2018-03-03T03:40:57.880Z,-8.43
2018-03-03T03:43:26.316Z,-8.48
2018-03-03T03:45:54.752Z,-8.50
2018-03-03T03:48:23.240Z,-8.50
2018-03-03T03:50:51.655Z,-8.49
2018-03-03T03:53:20.066Z,-8.51
2018-03-03T03:55:48.537Z,-8.54
2018-03-03T03:58:16.968Z,-8.50
2018-03-03T04:00:45.386Z,-8.58
2018-03-03T04:03:13.870Z,-8.59
2018-03-03T04:05:42.295Z,-8.64
2018-03-03T04:08:10.728Z,-8.63
2018-03-03T04:10:39.235Z,-8.64
2018-03-03T04:13:07.672Z,-8.67
2018-03-03T04:15:36.111Z,-8.66
2018-03-03T04:18:04.570Z,-8.68
2018-03-03T04:20:33.015Z,-8.73
2018-03-03T04:23:01.449Z,-8.74
2018-03-03T04:25:29.946Z,-8.81
2018-03-03T04:27:58.392Z,-8.87
2018-03-03T04:30:26.837Z,-8.87
2018-03-03T04:32:55.322Z,-8.89
2018-03-03T04:35:23.757Z,-8.88
2018-03-03T04:37:52.209Z,-8.90
2018-03-03T04:40:20.847Z,-8.94
2018-03-03T04:42:49.277Z,-8.94
2018-03-03T04:45:17.708Z,-8.99
2018-03-03T04:47:46.197Z,-8.97
2018-03-03T04:50:14.647Z,-8.97
2018-03-03T04:52:43.091Z,-9.00
2018-03-03T04:55:11.570Z,-9.08
2018-03-03T04:57:40.002Z,-9.08
2018-03-03T05:00:14.005Z,-9.09
2018-03-03T05:02:47.939Z,-9.11
2018-03-03T05:05:18.275Z,-9.16
2018-03-03T05:07:55.200Z,-9.17
2018-03-03T05:10:26.036Z,-9.20
2018-03-03T05:12:55.284Z,-9.18
2018-03-03T05:15:29.382Z,-9.18
2018-03-03T05:18:03.436Z,-9.23
2018-03-03T05:20:34.485Z,-9.26
2018-03-03T05:23:08.330Z,-9.24
2018-03-03T05:25:42.777Z,-9.24
2018-03-03T05:31:22.602Z,-9.31
2018-03-03T05:36:59.475Z,-9.30
2018-03-03T05:39:33.502Z,-9.35
2018-03-03T05:45:13.289Z,-9.40
2018-03-03T05:47:49.209Z,-9.46
2018-03-03T05:53:34.385Z,-9.42
2018-03-03T05:56:11.153Z,-9.47
2018-03-03T05:58:45.358Z,-9.45
2018-03-03T06:01:20.401Z,-9.41
2018-03-03T06:03:59.759Z,-9.40
2018-03-03T06:09:33.392Z,-9.45
2018-03-03T06:12:01.837Z,-9.45
2018-03-03T06:14:30.277Z,-9.49
2018-03-03T06:16:58.749Z,-9.49
2018-03-03T06:19:27.192Z,-9.52
2018-03-03T06:21:55.658Z,-9.47
2018-03-03T06:24:24.134Z,-9.48
2018-03-03T06:26:52.567Z,-9.43
2018-03-03T06:29:20.998Z,-9.41
2018-03-03T06:31:49.465Z,-9.48
2018-03-03T06:34:17.897Z,-9.43
2018-03-03T06:36:46.317Z,-9.40
2018-03-03T06:39:14.782Z,-9.39
2018-03-03T06:41:43.215Z,-9.38
2018-03-03T06:44:11.627Z,-9.40
2018-03-03T06:46:40.097Z,-9.39
2018-03-03T06:49:08.515Z,-9.39
2018-03-03T06:51:36.946Z,-9.41
2018-03-03T06:54:05.433Z,-9.34
2018-03-03T06:56:33.867Z,-9.33
2018-03-03T06:59:02.301Z,-9.32
2018-03-03T07:01:30.771Z,-9.28
2018-03-03T07:03:59.206Z,-9.24
2018-03-03T07:06:27.649Z,-9.23
2018-03-03T07:08:56.129Z,-9.24
2018-03-03T07:11:24.570Z,-9.18
2018-03-03T07:13:53.037Z,-9.17
2018-03-03T07:16:21.512Z,-9.19
2018-03-03T07:18:49.923Z,-9.16
2018-03-03T07:21:18.409Z,-9.13
2018-03-03T07:23:46.902Z,-9.03
2018-03-03T07:26:15.333Z,-9.06
2018-03-03T07:28:43.767Z,-9.07
2018-03-03T07:31:12.241Z,-9.04
2018-03-03T07:33:40.673Z,-8.98
2018-03-03T07:36:09.128Z,-8.96
2018-03-03T07:38:37.602Z,-8.94
2018-03-03T07:41:06.023Z,-8.94
2018-03-03T07:43:34.457Z,-8.98
2018-03-03T07:46:02.922Z,-8.93
2018-03-03T07:48:31.364Z,-8.85
2018-03-03T07:50:59.828Z,-8.86
2018-03-03T07:53:28.318Z,-8.77
2018-03-03T07:55:56.752Z,-8.76
2018-03-03T08:01:26.153Z,-8.59
2018-03-03T08:03:54.651Z,-8.56
2018-03-03T08:06:23.072Z,-8.41
2018-03-03T08:08:51.502Z,-8.39
2018-03-03T08:11:19.974Z,-8.36
2018-03-03T08:13:48.408Z,-8.34
2018-03-03T08:16:16.849Z,-8.16
2018-03-03T08:18:45.317Z,-8.01
2018-03-03T08:21:13.813Z,-8.02
2018-03-03T08:23:42.234Z,-7.95
2018-03-03T08:26:10.705Z,-7.85
2018-03-03T08:28:39.140Z,-7.86
2018-03-03T08:31:07.600Z,-7.78
2018-03-03T08:33:36.107Z,-7.69
2018-03-03T08:36:04.534Z,-7.61
2018-03-03T08:38:32.958Z,-7.54
2018-03-03T08:41:01.423Z,-7.49
2018-03-03T08:43:29.851Z,-7.30
2018-03-03T08:45:58.278Z,-7.24
2018-03-03T08:48:26.753Z,-7.15
2018-03-03T08:50:55.193Z,-7.12
2018-03-03T08:53:23.615Z,-6.98
2018-03-03T08:55:52.075Z,-6.92
2018-03-03T08:58:20.501Z,-6.90
2018-03-03T09:00:48.937Z,-6.88
2018-03-03T09:03:17.426Z,-6.75
2018-03-03T09:05:45.838Z,-6.56
2018-03-03T09:08:14.270Z,-6.28
2018-03-03T09:10:42.778Z,-6.12
2018-03-03T09:13:11.261Z,-6.02
2018-03-03T09:15:39.694Z,-5.82
2018-03-03T09:18:08.167Z,-5.63
2018-03-03T09:20:36.611Z,-5.55
2018-03-03T09:23:05.048Z,-5.51
2018-03-03T09:25:33.523Z,-5.37
2018-03-03T09:28:01.961Z,-5.30
2018-03-03T09:30:30.412Z,-5.29
2018-03-03T09:32:58.893Z,-5.33
2018-03-03T09:35:27.330Z,-5.44
2018-03-03T09:37:55.782Z,-5.23
2018-03-03T09:40:24.248Z,-5.26
2018-03-03T09:42:52.694Z,-5.19
2018-03-03T09:45:21.138Z,-5.08
2018-03-03T09:47:49.632Z,-4.96
2018-03-03T09:50:18.080Z,-4.99
2018-03-03T09:52:46.535Z,-4.78
2018-03-03T09:55:15.033Z,-4.83
2018-03-03T09:57:43.462Z,-4.82
2018-03-03T10:00:11.971Z,-4.72
2018-03-03T10:02:40.469Z,-4.71
2018-03-03T10:05:08.898Z,-4.49
2018-03-03T10:07:37.337Z,-4.55
2018-03-03T10:10:05.832Z,-4.58
2018-03-03T10:12:34.262Z,-4.65
2018-03-03T10:15:02.751Z,-4.72
2018-03-03T10:17:31.433Z,-4.70
2018-03-03T10:19:59.873Z,-4.71
2018-03-03T10:22:28.311Z,-4.64
2018-03-03T10:24:56.779Z,-4.57
2018-03-03T10:27:25.225Z,-4.53
2018-03-03T10:29:53.668Z,-4.30
2018-03-03T10:32:22.155Z,-4.30
2018-03-03T10:34:50.590Z,-4.17
2018-03-03T10:37:19.040Z,-4.10
2018-03-03T10:39:47.614Z,-4.01
2018-03-03T10:42:15.999Z,-3.80
2018-03-03T10:44:44.426Z,-3.50
2018-03-03T10:47:12.909Z,-3.36
2018-03-03T10:49:41.383Z,-3.66
2018-03-03T10:52:09.817Z,-3.80
2018-03-03T10:54:38.292Z,-3.77
2018-03-03T10:57:06.718Z,-3.55
2018-03-03T10:59:35.142Z,-3.26
2018-03-03T11:02:03.607Z,-3.09
2018-03-03T11:04:32.023Z,-2.98
2018-03-03T11:07:00.455Z,-2.95
2018-03-03T11:09:28.958Z,-2.91
2018-03-03T11:11:57.373Z,-3.01
2018-03-03T11:14:25.817Z,-3.12
2018-03-03T11:16:54.467Z,-2.97
2018-03-03T11:19:22.912Z,-2.98
2018-03-03T11:21:51.337Z,-2.98
2018-03-03T11:24:19.793Z,-2.88
2018-03-03T11:26:48.225Z,-2.65
2018-03-03T11:29:16.664Z,-2.65
2018-03-03T11:31:45.138Z,-2.56
2018-03-03T11:34:13.562Z,-2.36
2018-03-03T11:36:41.996Z,-2.41
2018-03-03T11:39:10.485Z,-2.39
2018-03-03T11:41:38.910Z,-2.37
2018-03-03T11:44:07.341Z,-2.26
2018-03-03T11:46:35.838Z,-2.17
2018-03-03T11:49:04.295Z,-2.26
2018-03-03T11:51:32.739Z,-2.33
2018-03-03T11:54:01.203Z,-2.14
2018-03-03T11:56:29.635Z,-2.12
2018-03-03T11:58:58.066Z,-2.15
2018-03-03T12:01:26.539Z,-2.25
2018-03-03T12:03:54.966Z,-2.09
2018-03-03T12:06:23.384Z,-1.97
2018-03-03T12:08:51.875Z,-1.83
2018-03-03T12:11:20.329Z,-1.69
2018-03-03T12:13:48.785Z,-1.43
2018-03-03T12:16:17.310Z,-1.28
2018-03-03T12:18:45.757Z,-1.23
2018-03-03T12:21:14.185Z,-1.39
2018-03-03T12:23:42.646Z,-1.39
2018-03-03T12:26:11.088Z,-1.26
2018-03-03T12:28:39.541Z,-1.17
2018-03-03T12:31:08.006Z,-1.08
2018-03-03T12:33:36.425Z,-0.92
2018-03-03T12:36:04.851Z,-0.96
2018-03-03T12:38:33.337Z,-0.84
2018-03-03T12:41:01.776Z,-0.93
2018-03-03T12:43:30.212Z,-1.05
2018-03-03T12:45:58.683Z,-0.91
2018-03-03T12:48:27.130Z,-1.06
2018-03-03T12:50:55.570Z,-1.07
2018-03-03T12:53:24.051Z,-0.86
2018-03-03T12:55:52.478Z,-0.74
2018-03-03T12:58:20.918Z,-0.74
2018-03-03T13:00:49.386Z,-0.67
2018-03-03T13:03:17.819Z,-0.89
2018-03-03T13:05:46.253Z,-1.15
2018-03-03T13:08:14.749Z,-1.39
2018-03-03T13:10:43.172Z,-1.31
2018-03-03T13:13:11.598Z,-1.24
2018-03-03T13:15:40.062Z,-1.26
2018-03-03T13:18:08.486Z,-1.20
2018-03-03T13:20:36.922Z,-1.12
2018-03-03T13:23:05.398Z,-1.24
2018-03-03T13:25:33.834Z,-1.15
2018-03-03T13:28:02.281Z,-1.15
2018-03-03T13:30:30.755Z,-1.13
2018-03-03T13:32:59.188Z,-1.23
2018-03-03T13:35:27.619Z,-1.33
2018-03-03T13:37:56.082Z,-1.26
2018-03-03T13:40:24.534Z,-1.20
2018-03-03T13:42:52.977Z,-1.25
2018-03-03T13:45:21.456Z,-1.27
2018-03-03T13:47:49.882Z,-1.19
2018-03-03T13:50:18.322Z,-1.14
2018-03-03T13:52:46.784Z,-1.09
2018-03-03T13:55:15.214Z,-1.00
2018-03-03T13:57:43.642Z,-0.83
2018-03-03T14:00:12.118Z,-0.44
2018-03-03T14:02:40.548Z,-0.36
2018-03-03T14:05:09.016Z,-0.24
2018-03-03T14:07:37.488Z,-0.19
2018-03-03T14:10:05.946Z,-0.15
2018-03-03T14:12:34.389Z,-0.37
2018-03-03T14:15:02.854Z,-0.51
2018-03-03T14:17:31.308Z,-0.75
2018-03-03T14:19:59.757Z,-0.84
2018-03-03T14:22:28.223Z,-0.86
2018-03-03T14:24:56.684Z,-1.02
2018-03-03T14:27:25.136Z,-1.05
2018-03-03T14:29:53.850Z,-1.15
2018-03-03T14:32:22.279Z,-1.23
2018-03-03T14:34:50.719Z,-1.26
2018-03-03T14:37:19.186Z,-1.32
2018-03-03T14:39:47.612Z,-1.32
2018-03-03T14:42:16.038Z,-1.28
2018-03-03T14:44:44.525Z,-1.30
2018-03-03T14:47:12.947Z,-1.24
2018-03-03T14:49:41.377Z,-1.23
2018-03-03T14:52:09.910Z,-1.26
2018-03-03T14:54:38.334Z,-1.24
2018-03-03T14:57:06.753Z,-1.25
2018-03-03T14:59:35.244Z,-1.25
2018-03-03T15:02:03.667Z,-1.26
2018-03-03T15:04:32.103Z,-1.27
2018-03-03T15:07:00.574Z,-1.38
2018-03-03T15:09:29.007Z,-1.39
2018-03-03T15:11:57.435Z,-1.43
2018-03-03T15:14:25.891Z,-1.43
2018-03-03T15:16:54.329Z,-1.40
2018-03-03T15:19:22.750Z,-1.45
2018-03-03T15:21:51.202Z,-1.46
2018-03-03T15:24:19.618Z,-1.44
2018-03-03T15:26:48.052Z,-1.51
2018-03-03T15:29:16.539Z,-1.46
2018-03-03T15:31:44.969Z,-1.48
2018-03-03T15:34:13.419Z,-1.47
2018-03-03T15:36:41.916Z,-1.44
2018-03-03T15:39:10.349Z,-1.45
2018-03-03T15:41:38.779Z,-1.51
2018-03-03T15:44:07.242Z,-1.54
2018-03-03T15:46:35.671Z,-1.53
2018-03-03T15:49:04.086Z,-1.58
2018-03-03T15:51:32.574Z,-1.58
2018-03-03T15:54:01.016Z,-1.59
2018-03-03T15:56:29.462Z,-1.63
2018-03-03T15:58:57.951Z,-1.63
2018-03-03T16:01:27.354Z,-1.66
2018-03-03T16:03:55.803Z,-1.68
2018-03-03T16:06:24.300Z,-1.70
2018-03-03T16:08:52.746Z,-1.70
2018-03-03T16:11:21.189Z,-1.70
2018-03-03T16:13:49.682Z,-1.74
2018-03-03T16:16:18.125Z,-1.74
2018-03-03T16:18:46.556Z,-1.74
2018-03-03T16:21:15.041Z,-1.75
2018-03-03T16:23:43.485Z,-1.76
2018-03-03T16:26:12.290Z,-1.77
2018-03-03T16:28:40.793Z,-1.78
2018-03-03T16:31:09.235Z,-1.79
2018-03-03T16:33:37.844Z,-1.79
2018-03-03T16:36:06.345Z,-1.77
2018-03-03T16:38:34.782Z,-1.80
2018-03-03T16:41:03.234Z,-1.79
2018-03-03T16:43:31.734Z,-1.83
2018-03-03T16:46:00.189Z,-1.83
2018-03-03T16:48:28.632Z,-1.83
2018-03-03T16:50:57.095Z,-1.83
2018-03-03T16:53:25.511Z,-1.87
2018-03-03T16:55:53.944Z,-1.88
2018-03-03T16:58:22.411Z,-1.91
2018-03-03T17:00:50.831Z,-1.89
2018-03-03T17:03:19.276Z,-1.88
2018-03-03T17:05:47.763Z,-1.92
2018-03-03T17:08:16.200Z,-1.96
2018-03-03T17:10:44.634Z,-2.01
2018-03-03T17:13:13.098Z,-2.01
2018-03-03T17:15:41.538Z,-2.08
2018-03-03T17:18:09.972Z,-2.01
2018-03-03T17:20:38.444Z,-2.02
2018-03-03T17:23:06.867Z,-2.04
2018-03-03T17:25:35.313Z,-2.05
2018-03-03T17:28:03.779Z,-2.06
2018-03-03T17:30:32.205Z,-2.10
2018-03-03T17:33:00.645Z,-2.09
2018-03-03T17:35:29.108Z,-2.13
2018-03-03T17:37:57.532Z,-2.19
2018-03-03T17:40:25.966Z,-2.20
2018-03-03T17:42:54.447Z,-2.19
2018-03-03T17:45:22.889Z,-2.18
2018-03-03T17:47:51.329Z,-2.21
2018-03-03T17:50:19.802Z,-2.22
2018-03-03T17:52:48.242Z,-2.21
2018-03-03T17:55:16.698Z,-2.23
2018-03-03T17:57:45.178Z,-2.22
2018-03-03T18:00:13.598Z,-2.22
2018-03-03T18:02:42.050Z,-2.23
2018-03-03T18:05:10.542Z,-2.27
2018-03-03T18:07:38.955Z,-2.30
2018-03-03T18:10:07.393Z,-2.27
2018-03-03T18:12:35.914Z,-2.28
2018-03-03T18:15:04.358Z,-2.28
2018-03-03T18:17:32.799Z,-2.26
2018-03-03T18:20:01.263Z,-2.29
2018-03-03T18:22:29.669Z,-2.31
2018-03-03T18:24:58.089Z,-2.29
2018-03-03T18:27:26.566Z,-2.30
2018-03-03T18:29:55.029Z,-2.31
2018-03-03T18:32:23.464Z,-2.31
2018-03-03T18:34:51.935Z,-2.30
2018-03-03T18:37:20.347Z,-2.31
2018-03-03T18:39:48.777Z,-2.31
2018-03-03T18:42:17.234Z,-2.30
2018-03-03T18:44:45.651Z,-2.32
2018-03-03T18:47:14.062Z,-2.35
2018-03-03T18:49:42.541Z,-2.32
2018-03-03T18:52:10.970Z,-2.33
2018-03-03T18:54:39.381Z,-2.33
2018-03-03T18:57:07.855Z,-2.32
2018-03-03T18:59:36.275Z,-2.36
2018-03-03T19:02:04.728Z,-2.34
2018-03-03T19:04:33.210Z,-2.36
2018-03-03T19:07:01.647Z,-2.37
2018-03-03T19:09:30.085Z,-2.39
2018-03-03T19:11:58.716Z,-2.40
2018-03-03T19:14:27.154Z,-2.40
2018-03-03T19:16:55.642Z,-2.40
2018-03-03T19:19:24.105Z,-2.45
2018-03-03T19:21:52.533Z,-2.43
2018-03-03T19:24:20.946Z,-2.44
2018-03-03T19:26:49.439Z,-2.48
2018-03-03T19:29:17.861Z,-2.44
2018-03-03T19:31:46.274Z,-2.47
2018-03-03T19:34:14.732Z,-2.51
2018-03-03T19:36:43.153Z,-2.53
2018-03-03T19:39:11.584Z,-2.58
2018-03-03T19:41:40.088Z,-2.54
2018-03-03T19:44:08.514Z,-2.57
2018-03-03T19:46:36.956Z,-2.55
2018-03-03T19:49:05.423Z,-2.58
2018-03-03T19:51:33.838Z,-2.61
2018-03-03T19:54:02.259Z,-2.59
2018-03-03T19:56:30.740Z,-2.58
2018-03-03T19:58:59.178Z,-2.60
2018-03-03T20:01:27.593Z,-2.64
2018-03-03T20:03:56.114Z,-2.66
2018-03-03T20:06:24.543Z,-2.66
2018-03-03T20:08:52.970Z,-2.63
2018-03-03T20:11:21.444Z,-2.68
2018-03-03T20:13:49.877Z,-2.65
2018-03-03T20:16:18.286Z,-2.65
2018-03-03T20:18:46.773Z,-2.68
2018-03-03T20:21:15.213Z,-2.69
2018-03-03T20:23:43.649Z,-2.74
2018-03-03T20:26:12.121Z,-2.76
2018-03-03T20:28:40.543Z,-2.77
2018-03-03T20:31:08.981Z,-2.78
2018-03-03T20:33:37.446Z,-2.78
2018-03-03T20:36:05.868Z,-2.79
2018-03-03T20:38:34.300Z,-2.81
2018-03-03T20:41:02.781Z,-2.82
2018-03-03T20:43:31.210Z,-2.87
2018-03-03T20:45:59.630Z,-2.86
2018-03-03T20:48:28.096Z,-2.89
2018-03-03T20:50:56.533Z,-2.89
2018-03-03T20:53:24.981Z,-2.92
2018-03-03T20:55:53.510Z,-2.99
2018-03-03T20:58:21.951Z,-2.95
2018-03-03T21:00:50.529Z,-2.97
2018-03-03T21:03:19.026Z,-2.90
2018-03-03T21:05:47.487Z,-2.90
2018-03-03T21:08:15.907Z,-2.84
2018-03-03T21:10:44.381Z,-2.87
2018-03-03T21:13:12.842Z,-2.89
2018-03-03T21:15:41.277Z,-2.88
2018-03-03T21:18:09.748Z,-2.88
2018-03-03T21:20:38.184Z,-2.86
2018-03-03T21:23:06.602Z,-2.89
2018-03-03T21:25:35.081Z,-2.94
2018-03-03T21:28:03.500Z,-2.91
2018-03-03T21:30:31.919Z,-2.93
2018-03-03T21:33:00.392Z,-2.95
2018-03-03T21:35:28.825Z,-2.96
2018-03-03T21:37:57.253Z,-2.97
2018-03-03T21:40:25.715Z,-3.00
2018-03-03T21:42:54.136Z,-3.01
2018-03-03T21:45:22.550Z,-2.99
2018-03-03T21:47:51.020Z,-3.06
2018-03-03T21:50:19.467Z,-3.09
2018-03-03T21:52:47.903Z,-3.08
2018-03-03T21:55:16.367Z,-3.11
2018-03-03T21:57:44.783Z,-3.15
2018-03-03T22:00:13.239Z,-3.15
2018-03-03T22:02:41.771Z,-3.15
2018-03-03T22:05:10.216Z,-3.11
2018-03-03T22:07:38.662Z,-3.16
2018-03-03T22:10:07.254Z,-3.19
2018-03-03T22:12:35.653Z,-3.21
2018-03-03T22:15:04.176Z,-3.22
2018-03-03T22:17:33.601Z,-3.19
2018-03-03T22:20:02.043Z,-3.26
2018-03-03T22:22:30.488Z,-3.21
2018-03-03T22:24:58.990Z,-3.23
2018-03-03T22:27:27.422Z,-3.21
2018-03-03T22:29:55.858Z,-3.21
2018-03-03T22:32:24.329Z,-3.21
2018-03-03T22:34:52.758Z,-3.27
2018-03-03T22:37:21.194Z,-3.31
2018-03-03T22:39:49.673Z,-3.33
2018-03-03T22:42:19.223Z,-3.37
2018-03-03T22:44:47.671Z,-3.37
2018-03-03T22:47:16.156Z,-3.35
2018-03-03T22:49:44.589Z,-3.36
2018-03-03T22:52:13.045Z,-3.32
2018-03-03T22:54:41.513Z,-3.36
2018-03-03T22:57:09.939Z,-3.42
2018-03-03T22:59:38.380Z,-3.41
2018-03-03T23:02:06.874Z,-3.34
2018-03-03T23:04:35.298Z,-3.32
2018-03-03T23:07:03.715Z,-3.31
2018-03-03T23:09:32.179Z,-3.37
2018-03-03T23:12:00.619Z,-3.34
2018-03-03T23:14:29.057Z,-3.30
2018-03-03T23:16:57.541Z,-3.32
2018-03-03T23:19:25.996Z,-3.27
2018-03-03T23:21:54.437Z,-3.21
2018-03-03T23:24:22.917Z,-3.26
2018-03-03T23:26:51.365Z,-3.30
2018-03-03T23:29:19.798Z,-3.28
2018-03-03T23:31:48.257Z,-3.23
2018-03-03T23:34:16.690Z,-3.24
2018-03-03T23:36:45.111Z,-3.22
2018-03-03T23:39:13.600Z,-3.27
2018-03-03T23:41:42.049Z,-3.28
2018-03-03T23:44:10.478Z,-3.30
2018-03-03T23:46:38.953Z,-3.32
2018-03-03T23:49:07.374Z,-3.34
2018-03-03T23:51:35.804Z,-3.29
2018-03-03T23:54:04.632Z,-3.36
2018-03-03T23:56:33.061Z,-3.37
2018-03-03T23:59:01.478Z,-3.33
